Time;durP1;ratioP1;P1;durP2;ratioP2;P2;SDS_P1;SDS_P2;PMS_P1;PMS_P2;Temp;Humidity;BMP_temperature;BMP_pressure;BME280_temperature;BME280_humidity;BME280_pressure;Samples;Min_cycle;Max_cycle;Signal;HPM_P1;HPM_P2
2022/03/31 00:01:34;;;;;;;3.17;0.52;;;4.00;99.90;;;;;;4933857;29;20125;-84
2022/03/31 00:04:00;;;;;;;4.65;0.68;;;4.00;99.90;;;;;;4917414;29;20135;-86
2022/03/31 00:06:25;;;;;;;5.32;0.93;;;3.90;99.90;;;;;;4934100;29;20058;-84
2022/03/31 00:08:51;;;;;;;3.80;0.68;;;3.90;99.90;;;;;;4917089;29;20403;-84
2022/03/31 00:11:18;;;;;;;1.02;0.35;;;3.90;99.90;;;;;;4933720;29;20035;-83
2022/03/31 00:13:45;;;;;;;3.47;0.55;;;3.90;99.90;;;;;;4932768;29;20480;-84
2022/03/31 00:16:11;;;;;;;4.43;0.60;;;3.80;99.90;;;;;;4932479;29;20058;-83
2022/03/31 00:18:37;;;;;;;3.97;0.43;;;3.80;99.90;;;;;;4933529;29;20044;-83
2022/03/31 00:24:25;;;;;;;5.90;0.77;;;3.70;99.90;;;;;;4932703;29;20118;-84
2022/03/31 00:26:51;;;;;;;7.93;0.80;;;3.70;99.90;;;;;;4933570;29;20407;-84
2022/03/31 00:29:17;;;;;;;4.25;0.60;;;3.70;99.90;;;;;;4932302;29;20047;-84
2022/03/31 00:31:42;;;;;;;1.88;0.50;;;3.70;99.90;;;;;;4933298;29;20051;-84
2022/03/31 00:34:08;;;;;;;5.00;1.10;;;3.70;99.90;;;;;;4932936;29;20059;-84
2022/03/31 00:36:34;;;;;;;2.50;0.50;;;3.60;99.90;;;;;;4934376;29;20047;-84
2022/03/31 00:41:44;;;;;;;4.10;0.98;;;3.60;99.90;;;;;;4933069;29;20117;-84
2022/03/31 00:44:10;;;;;;;3.38;0.77;;;3.60;99.90;;;;;;4931555;29;20511;-84
2022/03/31 00:46:47;;;;;;;6.60;0.80;;;3.60;99.90;;;;;;4933375;29;20046;-85
2022/03/31 00:49:13;;;;;;;5.88;1.17;;;3.50;99.90;;;;;;4932858;29;20059;-84
2022/03/31 00:51:39;;;;;;;4.93;0.95;;;3.50;99.90;;;;;;4932302;29;20121;-84
2022/03/31 00:54:04;;;;;;;5.10;0.90;;;3.50;99.90;;;;;;4917677;29;20435;-85
2022/03/31 00:56:32;;;;;;;11.32;1.10;;;3.50;99.90;;;;;;4932898;29;20129;-84
2022/03/31 00:58:57;;;;;;;9.75;0.88;;;3.40;99.90;;;;;;4931721;29;20183;-84
2022/03/31 01:01:23;;;;;;;6.00;0.90;;;3.40;99.90;;;;;;4917141;29;20130;-85
2022/03/31 01:03:49;;;;;;;9.13;1.58;;;3.40;99.90;;;;;;4932503;29;20063;-84
2022/03/31 01:06:15;;;;;;;5.47;1.30;;;3.40;99.90;;;;;;4931679;29;20050;-85
2022/03/31 01:08:42;;;;;;;5.20;1.30;;;3.40;99.90;;;;;;4916843;29;20055;-83
2022/03/31 01:11:07;;;;;;;6.22;1.88;;;3.30;99.90;;;;;;4932644;29;20070;-85
2022/03/31 01:13:33;;;;;;;6.03;2.15;;;3.30;99.90;;;;;;4932239;29;20491;-84
2022/03/31 01:16:01;;;;;;;4.95;2.17;;;3.20;99.90;;;;;;4931759;29;20047;-84
2022/03/31 01:18:27;;;;;;;6.30;2.42;;;3.30;99.90;;;;;;4932843;29;20117;-84
2022/03/31 01:20:52;;;;;;;5.68;2.13;;;3.20;99.90;;;;;;4932231;29;20043;-84
2022/03/31 01:23:19;;;;;;;6.07;2.58;;;3.30;99.90;;;;;;4932246;29;20389;-84
2022/03/31 01:25:45;;;;;;;7.35;2.90;;;3.20;99.90;;;;;;4916134;29;20058;-84
2022/03/31 01:28:10;;;;;;;5.30;2.75;;;3.20;99.90;;;;;;4930949;29;20047;-85
2022/03/31 01:30:36;;;;;;;7.03;3.28;;;3.30;99.90;;;;;;4931592;29;20043;-86
2022/03/31 01:33:02;;;;;;;10.20;3.35;;;3.30;99.90;;;;;;4932255;29;20150;-84
2022/03/31 01:35:28;;;;;;;7.28;3.13;;;3.20;99.90;;;;;;4915397;29;20407;-85
2022/03/31 01:37:54;;;;;;;7.95;3.45;;;3.20;99.90;;;;;;4917100;29;20046;-85
2022/03/31 01:40:19;;;;;;;8.27;3.45;;;3.20;99.90;;;;;;4931698;29;20133;-85
2022/03/31 01:42:46;;;;;;;6.05;3.38;;;3.20;99.90;;;;;;4932974;29;20059;-85
2022/03/31 01:45:15;;;;;;;9.32;3.47;;;3.20;99.90;;;;;;4931447;29;20141;-85
2022/03/31 01:47:41;;;;;;;8.25;3.60;;;3.20;99.90;;;;;;4916798;29;20147;-84
2022/03/31 01:50:09;;;;;;;11.27;4.10;;;3.20;99.90;;;;;;4915930;29;20141;-85
2022/03/31 01:52:35;;;;;;;7.93;4.03;;;3.20;99.90;;;;;;4935456;29;20058;-85
2022/03/31 01:55:01;;;;;;;9.80;4.20;;;3.20;99.90;;;;;;4919839;29;20472;-86
2022/03/31 01:57:27;;;;;;;9.57;4.25;;;3.20;99.90;;;;;;4921393;29;20047;-86
2022/03/31 01:59:54;;;;;;;6.68;4.25;;;3.20;99.90;;;;;;4920583;29;20054;-85
2022/03/31 02:02:20;;;;;;;8.80;4.35;;;3.20;99.90;;;;;;4919245;29;20134;-86
2022/03/31 02:04:47;;;;;;;8.88;4.20;;;3.20;99.90;;;;;;4921007;29;20403;-85
2022/03/31 02:07:13;;;;;;;11.52;4.53;;;3.20;99.90;;;;;;4935240;29;20047;-85
2022/03/31 02:09:41;;;;;;;10.15;4.70;;;3.20;99.90;;;;;;4919707;29;20048;-85
2022/03/31 02:12:07;;;;;;;9.60;5.18;;;3.20;99.90;;;;;;4936543;29;20507;-86
2022/03/31 02:14:37;;;;;;;10.23;5.82;;;3.20;99.90;;;;;;4919944;29;20058;-85
2022/03/31 02:17:07;;;;;;;9.25;5.80;;;3.10;99.90;;;;;;4920008;29;20057;-86
2022/03/31 02:19:33;;;;;;;9.35;6.57;;;3.20;99.90;;;;;;4936837;29;20047;-86
2022/03/31 02:21:59;;;;;;;12.23;5.45;;;3.10;99.90;;;;;;4936700;29;20074;-86
2022/03/31 02:24:25;;;;;;;9.95;5.97;;;3.10;99.90;;;;;;4935092;29;20047;-86
2022/03/31 02:26:51;;;;;;;7.97;5.25;;;3.10;99.90;;;;;;4936155;29;20063;-86
2022/03/31 02:29:18;;;;;;;9.25;5.72;;;3.10;99.90;;;;;;4919552;29;20483;-85
2022/03/31 02:31:46;;;;;;;11.30;5.68;;;3.10;99.90;;;;;;4920087;29;20264;-86
2022/03/31 02:34:12;;;;;;;7.43;5.15;;;3.10;99.90;;;;;;4935397;29;20076;-85
2022/03/31 02:36:40;;;;;;;12.20;6.15;;;3.10;99.90;;;;;;4935839;29;20047;-86
2022/03/31 02:39:07;;;;;;;10.73;6.78;;;3.10;99.90;;;;;;4935826;29;20044;-85
2022/03/31 02:41:33;;;;;;;9.27;5.93;;;3.20;99.90;;;;;;4920223;29;20039;-85
2022/03/31 02:43:59;;;;;;;11.15;6.18;;;3.10;99.90;;;;;;4918944;29;20498;-85
2022/03/31 02:46:28;;;;;;;7.93;5.60;;;3.10;99.90;;;;;;4920592;29;20483;-85
2022/03/31 02:48:54;;;;;;;7.45;4.70;;;3.10;99.90;;;;;;4920416;29;20051;-85
2022/03/31 02:51:21;;;;;;;7.75;5.05;;;3.10;99.90;;;;;;4933161;28;20569;-85
2022/03/31 02:56:32;;;;;;;8.50;5.70;;;3.10;99.90;;;;;;4955276;28;20462;-84
2022/03/31 02:58:58;;;;;;;8.38;5.68;;;3.10;99.90;;;;;;4953114;28;20139;-85
2022/03/31 03:01:23;;;;;;;12.02;6.00;;;3.00;99.90;;;;;;4938445;28;20117;-85
2022/03/31 03:03:50;;;;;;;9.50;6.45;;;3.00;99.90;;;;;;4954689;28;20051;-85
2022/03/31 03:06:16;;;;;;;12.32;6.85;;;3.00;99.90;;;;;;4954050;28;20127;-86
2022/03/31 03:08:42;;;;;;;7.05;5.65;;;3.00;99.90;;;;;;4939837;28;20507;-88
2022/03/31 03:11:08;;;;;;;8.40;5.47;;;3.00;99.90;;;;;;4939567;28;20046;-87
2022/03/31 03:13:35;;;;;;;9.73;5.45;;;2.90;99.90;;;;;;4939788;28;20046;-87
2022/03/31 03:16:05;;;;;;;8.10;5.50;;;2.90;99.90;;;;;;4954761;28;20047;-86
2022/03/31 03:18:31;;;;;;;8.70;5.18;;;3.30;99.90;;;;;;4939436;28;20054;-87
2022/03/31 03:20:57;;;;;;;6.57;4.78;;;2.80;99.90;;;;;;4955211;28;20039;-87
2022/03/31 03:23:23;;;;;;;5.75;4.10;;;3.70;99.90;;;;;;4954941;28;20065;-87
2022/03/31 03:25:48;;;;;;;6.38;4.78;;;2.80;99.90;;;;;;4939362;28;20054;-87
2022/03/31 03:28:14;;;;;;;6.95;5.15;;;2.80;99.90;;;;;;4938588;28;20046;-86
2022/03/31 03:30:40;;;;;;;8.48;5.28;;;2.70;99.90;;;;;;4939033;28;20054;-87
2022/03/31 03:33:06;;;;;;;6.38;5.03;;;2.70;99.90;;;;;;4954575;28;20050;-88
2022/03/31 03:35:32;;;;;;;7.10;5.13;;;2.70;99.90;;;;;;4954996;28;20082;-88
2022/03/31 03:37:58;;;;;;;6.25;4.60;;;2.70;99.90;;;;;;4939727;28;20611;-88
2022/03/31 03:40:25;;;;;;;7.90;5.35;;;2.70;99.90;;;;;;4953810;28;20042;-87
2022/03/31 03:42:52;;;;;;;6.95;5.18;;;2.70;99.90;;;;;;4939114;28;20491;-88
2022/03/31 03:45:18;;;;;;;7.60;5.70;;;2.70;99.90;;;;;;4954080;28;20081;-89
2022/03/31 03:47:45;;;;;;;9.60;6.00;;;2.60;99.90;;;;;;4955221;28;20086;-89
2022/03/31 03:50:11;;;;;;;6.90;5.32;;;2.60;99.90;;;;;;4954915;28;20042;-88
2022/03/31 03:52:37;;;;;;;7.03;5.88;;;2.60;99.90;;;;;;4955446;28;20054;-89
2022/03/31 03:55:03;;;;;;;9.23;6.68;;;3.50;99.90;;;;;;4954590;28;20047;-89
2022/03/31 03:57:30;;;;;;;10.18;6.82;;;2.60;99.90;;;;;;4938581;28;20042;-89
2022/03/31 03:59:56;;;;;;;10.60;7.07;;;2.50;99.90;;;;;;4938520;28;20054;-89
2022/03/31 04:02:22;;;;;;;8.80;6.97;;;2.50;99.90;;;;;;4938535;28;20047;-90
2022/03/31 04:04:47;;;;;;;9.05;7.20;;;2.50;99.90;;;;;;4939203;28;20046;-91
2022/03/31 04:07:13;;;;;;;7.38;5.45;;;2.50;99.90;;;;;;4938406;28;20050;-90
2022/03/31 04:09:39;;;;;;;6.68;5.00;;;2.50;99.90;;;;;;4938649;28;20046;-90
2022/03/31 04:12:05;;;;;;;6.43;4.65;;;2.50;99.90;;;;;;4955035;28;20384;-90
2022/03/31 04:14:30;;;;;;;8.02;4.18;;;2.40;99.90;;;;;;4938099;28;20046;-90
2022/03/31 04:16:56;;;;;;;7.20;4.50;;;2.40;99.90;;;;;;4937752;28;20097;-90
2022/03/31 04:19:22;;;;;;;6.90;4.45;;;2.40;99.90;;;;;;4942353;29;20145;-90
2022/03/31 04:21:47;;;;;;;5.07;3.60;;;2.40;99.90;;;;;;4935388;29;20077;-91
2022/03/31 04:24:13;;;;;;;5.30;3.33;;;2.40;99.90;;;;;;4919337;29;20070;-92
2022/03/31 04:26:39;;;;;;;6.85;3.53;;;2.30;99.90;;;;;;4920579;29;20051;-92
2022/03/31 04:29:08;;;;;;;4.95;3.20;;;2.30;99.90;;;;;;4940481;28;20561;-94
2022/03/31 04:31:36;;;;;;;6.05;3.33;;;2.30;99.90;;;;;;4958822;28;20564;-90
2022/03/31 04:34:02;;;;;;;4.45;3.03;;;2.20;99.90;;;;;;4957545;28;20077;-90
2022/03/31 04:36:28;;;;;;;5.50;3.40;;;2.20;99.90;;;;;;4973245;28;20506;-90
2022/03/31 04:38:53;;;;;;;8.05;3.22;;;2.20;99.90;;;;;;4973465;28;20058;-89
2022/03/31 04:41:19;;;;;;;5.85;3.28;;;2.20;99.90;;;;;;4957940;28;20058;-89
2022/03/31 04:43:45;;;;;;;5.72;2.92;;;2.70;99.90;;;;;;4972574;28;20128;-88
2022/03/31 04:46:10;;;;;;;6.43;3.97;;;2.20;99.90;;;;;;4973077;28;20042;-89
2022/03/31 04:48:36;;;;;;;7.78;3.40;;;2.20;99.90;;;;;;4974430;28;20089;-89
2022/03/31 04:51:02;;;;;;;6.63;3.28;;;2.30;99.90;;;;;;4945178;28;20101;-88
2022/03/31 04:53:40;;;;;;;5.55;3.33;;;2.30;99.90;;;;;;4938802;28;20119;-89
2022/03/31 04:56:06;;;;;;;5.53;3.58;;;2.30;99.90;;;;;;4954222;28;20051;-89
2022/03/31 04:58:32;;;;;;;6.13;3.67;;;2.60;99.90;;;;;;4954133;28;20055;-90
2022/03/31 05:00:57;;;;;;;7.57;4.28;;;3.00;99.90;;;;;;4955174;28;20074;-91
2022/03/31 05:03:23;;;;;;;5.38;4.10;;;2.30;99.90;;;;;;4937275;28;20039;-88
2022/03/31 05:05:49;;;;;;;6.18;4.90;;;2.30;99.90;;;;;;4937962;28;20054;-88
2022/03/31 05:08:15;;;;;;;6.25;4.38;;;2.30;99.90;;;;;;4937940;28;20050;-88
2022/03/31 05:10:42;;;;;;;9.80;4.90;;;2.90;99.90;;;;;;4938413;28;20407;-89
2022/03/31 05:13:07;;;;;;;6.40;4.47;;;3.30;99.90;;;;;;4936673;28;20035;-88
2022/03/31 05:15:33;;;;;;;6.13;4.70;;;3.30;99.90;;;;;;4954107;28;20058;-88
2022/03/31 05:18:02;;;;;;;6.63;4.68;;;2.70;99.90;;;;;;4938299;28;20085;-87
2022/03/31 05:20:28;;;;;;;6.03;4.57;;;2.40;99.90;;;;;;4953480;28;20523;-89
2022/03/31 05:22:54;;;;;;;7.03;4.82;;;2.40;99.90;;;;;;4938416;28;20046;-89
2022/03/31 05:25:19;;;;;;;6.32;4.93;;;2.40;99.90;;;;;;4936916;28;20395;-89
2022/03/31 05:28:04;;;;;;;5.63;4.85;;;2.50;99.90;;;;;;4938067;28;20053;-88
2022/03/31 05:30:30;;;;;;;6.47;5.40;;;2.40;99.90;;;;;;4953779;28;20042;-87
2022/03/31 05:32:56;;;;;;;6.20;5.10;;;2.40;99.90;;;;;;4937026;28;20057;-88
2022/03/31 05:35:33;;;;;;;6.32;5.47;;;2.40;99.90;;;;;;4937225;28;20113;-87
2022/03/31 05:37:59;;;;;;;6.30;5.25;;;2.40;99.90;;;;;;4937644;28;20046;-86
2022/03/31 05:40:25;;;;;;;7.65;5.75;;;2.30;99.90;;;;;;4933237;29;20503;-88
2022/03/31 05:42:51;;;;;;;7.15;6.05;;;2.40;99.90;;;;;;4918264;29;20039;-87
2022/03/31 05:45:17;;;;;;;6.97;5.57;;;1.80;99.90;;;;;;4917749;29;20471;-88
2022/03/31 05:47:54;;;;;;;8.02;6.63;;;2.80;99.90;;;;;;4934334;29;20129;-88
2022/03/31 05:50:20;;;;;;;8.38;6.95;;;2.30;99.90;;;;;;4918310;29;20103;-88
2022/03/31 05:52:46;;;;;;;8.85;6.88;;;2.40;99.90;;;;;;4918238;29;20087;-88
2022/03/31 05:55:14;;;;;;;8.15;6.10;;;2.40;99.90;;;;;;4932907;29;20047;-88
2022/03/31 05:57:52;;;;;;;12.82;6.97;;;2.40;99.90;;;;;;4918194;29;20051;-86
2022/03/31 06:00:20;;;;;;;7.68;6.43;;;2.30;99.90;;;;;;4916873;29;20046;-87
2022/03/31 06:02:46;;;;;;;7.82;6.40;;;2.90;99.90;;;;;;4933790;28;20137;-87
2022/03/31 06:05:13;;;;;;;8.07;6.50;;;3.10;99.90;;;;;;4954890;28;20046;-86
2022/03/31 06:07:48;;;;;;;8.23;6.95;;;2.40;99.90;;;;;;4955673;28;20053;-87
2022/03/31 06:10:14;;;;;;;7.43;6.15;;;4.30;99.90;;;;;;4956210;28;20043;-88
2022/03/31 06:12:40;;;;;;;6.88;5.85;;;2.40;99.90;;;;;;4956033;28;20053;-88
2022/03/31 06:15:07;;;;;;;6.78;5.80;;;2.50;99.90;;;;;;4955030;28;20057;-87
2022/03/31 06:17:46;;;;;;;6.97;5.97;;;2.50;99.90;;;;;;4955602;28;20078;-88
2022/03/31 06:20:13;;;;;;;6.80;5.72;;;2.40;99.90;;;;;;4959219;28;20063;-89
2022/03/31 06:22:38;;;;;;;8.57;6.05;;;2.50;99.90;;;;;;4945691;28;20614;-87
2022/03/31 06:25:17;;;;;;;7.80;6.80;;;2.50;99.90;;;;;;4960672;28;20129;-87
2022/03/31 06:27:44;;;;;;;7.32;6.28;;;2.50;99.90;;;;;;4956159;28;20055;-88
2022/03/31 06:30:10;;;;;;;7.03;6.18;;;2.50;99.90;;;;;;4938860;28;20498;-90
2022/03/31 06:32:37;;;;;;;7.53;6.53;;;2.50;99.90;;;;;;4956617;28;20100;-90
2022/03/31 06:35:14;;;;;;;7.72;6.75;;;2.80;99.90;;;;;;4971835;28;20133;-88
2022/03/31 06:37:43;;;;;;;9.25;7.72;;;2.10;99.90;;;;;;4946664;28;20065;-86
2022/03/31 06:40:12;;;;;;;11.52;10.32;;;2.60;99.90;;;;;;4949859;28;20038;-87
2022/03/31 06:42:39;;;;;;;9.18;7.70;;;2.60;99.90;;;;;;4962543;28;20050;-87
2022/03/31 06:45:08;;;;;;;8.20;6.75;;;2.60;99.90;;;;;;4950091;28;20085;-87
2022/03/31 06:47:35;;;;;;;8.38;7.47;;;2.00;99.90;;;;;;4952811;28;20039;-87
2022/03/31 06:50:01;;;;;;;7.88;7.07;;;2.60;99.90;;;;;;4948872;28;20034;-86
2022/03/31 06:52:27;;;;;;;8.48;7.45;;;3.00;99.90;;;;;;4948328;28;20612;-85
2022/03/31 06:55:06;;;;;;;9.18;7.80;;;3.50;99.90;;;;;;4949455;28;20137;-87
2022/03/31 06:57:31;;;;;;;9.52;7.93;;;2.60;99.90;;;;;;4963599;28;20055;-87
2022/03/31 06:59:57;;;;;;;10.02;8.30;;;2.80;99.90;;;;;;4949940;28;20122;-88
2022/03/31 07:02:23;;;;;;;13.57;8.82;;;2.50;99.90;;;;;;4964492;28;20518;-88
2022/03/31 07:04:49;;;;;;;11.35;8.80;;;2.60;99.90;;;;;;4949041;28;20542;-86
2022/03/31 07:07:26;;;;;;;11.40;8.98;;;2.60;99.90;;;;;;4949852;28;20050;-87
2022/03/31 07:09:52;;;;;;;11.82;9.85;;;2.80;99.90;;;;;;4926355;28;20137;-85
2022/03/31 07:12:19;;;;;;;11.27;8.95;;;3.60;99.90;;;;;;4948841;28;20129;-85
2022/03/31 07:14:45;;;;;;;12.60;10.27;;;3.30;99.90;;;;;;4937872;28;20080;-86
2022/03/31 07:17:11;;;;;;;11.85;10.00;;;2.70;99.90;;;;;;4949690;28;20057;-86
2022/03/31 07:19:40;;;;;;;10.88;9.73;;;2.70;99.90;;;;;;4944895;28;20042;-86
2022/03/31 07:22:05;;;;;;;10.95;9.60;;;3.60;99.90;;;;;;4945251;28;20046;-87
2022/03/31 07:24:31;;;;;;;12.05;9.82;;;3.40;99.90;;;;;;4946823;28;20058;-87
2022/03/31 07:26:57;;;;;;;11.88;9.65;;;2.70;99.90;;;;;;4947471;28;20047;-88
2022/03/31 07:29:23;;;;;;;12.25;9.85;;;2.70;99.90;;;;;;4945361;28;20498;-89
2022/03/31 07:32:01;;;;;;;13.30;11.20;;;2.50;99.90;;;;;;4950381;28;20105;-88
2022/03/31 07:34:27;;;;;;;13.63;11.25;;;2.20;99.90;;;;;;4942907;28;20079;-89
2022/03/31 07:36:54;;;;;;;13.50;11.30;;;2.70;99.90;;;;;;4956426;28;20414;-88
2022/03/31 07:39:20;;;;;;;13.77;10.77;;;2.80;99.90;;;;;;4948763;28;20046;-88
2022/03/31 07:42:02;;;;;;;11.88;9.85;;;3.40;99.90;;;;;;4952209;28;20082;-89
2022/03/31 07:44:28;;;;;;;13.33;9.90;;;2.80;99.90;;;;;;4946912;28;20058;-88
2022/03/31 07:46:54;;;;;;;11.70;9.35;;;3.90;99.90;;;;;;4942311;28;20046;-88
2022/03/31 07:49:32;;;;;;;11.35;9.05;;;2.60;99.90;;;;;;4954523;28;20108;-90
2022/03/31 07:52:01;;;;;;;10.85;9.43;;;2.80;99.90;;;;;;4924840;28;20053;-89
2022/03/31 07:54:27;;;;;;;11.43;9.40;;;2.80;99.90;;;;;;4945440;28;20502;-89
2022/03/31 07:56:53;;;;;;;10.60;8.27;;;2.70;99.90;;;;;;4947499;28;20495;-88
2022/03/31 07:59:33;;;;;;;12.05;9.00;;;3.30;99.90;;;;;;4948926;28;20532;-89
2022/03/31 08:02:00;;;;;;;12.30;9.38;;;3.60;99.90;;;;;;4944337;28;20414;-87
2022/03/31 08:04:27;;;;;;;12.13;9.93;;;2.60;99.90;;;;;;4946727;28;20058;-88
2022/03/31 08:06:53;;;;;;;10.23;8.82;;;3.10;99.90;;;;;;4958526;28;20050;-87
2022/03/31 08:09:30;;;;;;;13.00;9.23;;;2.60;99.90;;;;;;4956811;28;20498;-87
2022/03/31 08:11:55;;;;;;;11.77;9.55;;;2.50;99.90;;;;;;4958044;28;20046;-88
2022/03/31 08:14:22;;;;;;;11.52;9.68;;;3.40;99.90;;;;;;4956480;28;20108;-87
2022/03/31 08:16:49;;;;;;;12.18;9.98;;;2.50;99.90;;;;;;4974614;28;20046;-88
2022/03/31 08:19:30;;;;;;;12.48;9.95;;;2.50;99.90;;;;;;4942360;29;20051;-86
2022/03/31 08:21:56;;;;;;;12.65;10.50;;;3.60;99.90;;;;;;4919626;29;20043;-86
2022/03/31 08:24:23;;;;;;;12.27;10.32;;;2.50;99.90;;;;;;4934022;29;20376;-86
2022/03/31 08:26:50;;;;;;;12.02;9.48;;;3.20;99.90;;;;;;4918635;29;20051;-85
2022/03/31 08:29:25;;;;;;;12.38;9.80;;;2.60;99.90;;;;;;4917890;29;20062;-87
2022/03/31 08:31:52;;;;;;;11.80;9.38;;;2.60;99.90;;;;;;4919141;29;20058;-86
2022/03/31 08:34:18;;;;;;;13.85;10.85;;;2.50;99.90;;;;;;4917863;29;20082;-85
2022/03/31 08:36:44;;;;;;;12.60;10.10;;;2.30;99.90;;;;;;4933062;29;20130;-84
2022/03/31 08:39:09;;;;;;;14.60;10.77;;;3.10;99.90;;;;;;4917667;29;20042;-86
2022/03/31 08:41:35;;;;;;;15.60;12.10;;;2.50;99.90;;;;;;4918883;29;20126;-88
2022/03/31 08:44:02;;;;;;;17.65;13.35;;;2.50;99.90;;;;;;4917565;29;20057;-87
2022/03/31 08:46:33;;;;;;;14.93;11.45;;;2.50;99.90;;;;;;4919501;29;20094;-89
2022/03/31 08:49:16;;;;;;;14.88;12.05;;;3.30;99.90;;;;;;4919432;29;20066;-92
2022/03/31 08:51:43;;;;;;;14.23;11.63;;;2.40;99.90;;;;;;4920492;29;20043;-90
2022/03/31 08:54:24;;;;;;;17.02;12.25;;;2.20;99.90;;;;;;4935287;29;20058;-88
2022/03/31 08:56:59;;;;;;;18.45;12.80;;;2.40;99.90;;;;;;4918947;29;20103;-89
2022/03/31 08:59:25;;;;;;;18.55;13.82;;;2.30;99.90;;;;;;4918692;29;20051;-90
2022/03/31 09:02:00;;;;;;;17.10;13.23;;;2.20;99.90;;;;;;4918733;29;20051;-89
2022/03/31 09:04:26;;;;;;;15.68;11.85;;;2.60;99.90;;;;;;4919103;29;20115;-92
2022/03/31 09:07:11;;;;;;;18.10;11.55;;;3.00;99.90;;;;;;4920405;29;20050;-92
2022/03/31 09:09:45;;;;;;;14.18;10.57;;;2.10;99.90;;;;;;4919300;29;20043;-95
2022/03/31 09:12:19;;;;;;;13.07;9.90;;;2.10;99.90;;;;;;4918777;29;20040;-91
2022/03/31 09:14:44;;;;;;;11.95;9.13;;;2.10;99.90;;;;;;4919478;29;20496;-93
2022/03/31 09:17:31;;;;;;;14.05;9.02;;;2.00;99.90;;;;;;4919097;29;20050;-92
2022/03/31 09:19:59;;;;;;;12.07;8.90;;;1.90;99.90;;;;;;4920517;29;20110;-92
2022/03/31 09:22:48;;;;;;;11.02;8.63;;;1.80;99.90;;;;;;4919451;29;20503;-88
2022/03/31 09:25:28;;;;;;;11.32;7.18;;;1.80;99.90;;;;;;4918027;29;20047;-89
2022/03/31 09:27:56;;;;;;;10.63;6.95;;;1.70;99.90;;;;;;4935538;29;20512;-91
2022/03/31 09:30:24;;;;;;;9.13;7.38;;;1.70;99.90;;;;;;4918786;29;20411;-93
2022/03/31 09:33:10;;;;;;;9.93;7.40;;;1.70;99.90;;;;;;4936341;29;20178;-89
2022/03/31 09:35:36;;;;;;;9.32;6.65;;;1.60;99.90;;;;;;4919027;29;20134;-89
2022/03/31 09:38:22;;;;;;;7.28;5.90;;;1.60;99.90;;;;;;4918679;29;20175;-88
2022/03/31 09:40:48;;;;;;;7.30;5.53;;;1.60;99.90;;;;;;4918836;29;20066;-93
2022/03/31 09:43:14;;;;;;;8.68;5.97;;;1.60;99.90;;;;;;4919165;29;20043;-94
2022/03/31 09:45:48;;;;;;;9.10;5.63;;;1.60;99.90;;;;;;4917767;29;20051;-89
2022/03/31 09:48:20;;;;;;;9.77;7.40;;;1.50;99.90;;;;;;4918045;29;20051;-89
2022/03/31 09:50:46;;;;;;;12.18;9.15;;;1.70;99.90;;;;;;4919319;29;20066;-88
2022/03/31 09:53:13;;;;;;;13.23;10.02;;;1.60;99.90;;;;;;4917134;29;20411;-88
2022/03/31 09:55:41;;;;;;;12.60;9.27;;;1.70;99.90;;;;;;4918003;29;20047;-87
2022/03/31 09:58:08;;;;;;;11.52;8.10;;;1.60;99.90;;;;;;4933585;29;20189;-87
2022/03/31 10:00:34;;;;;;;9.25;7.07;;;1.60;99.90;;;;;;4916980;29;20570;-87
2022/03/31 10:03:01;;;;;;;9.75;6.90;;;2.20;99.90;;;;;;4918401;29;20097;-88
2022/03/31 10:05:27;;;;;;;9.25;6.75;;;1.60;99.90;;;;;;4918019;29;20043;-87
2022/03/31 10:07:54;;;;;;;11.60;7.57;;;2.50;99.90;;;;;;4917464;29;20582;-87
2022/03/31 10:10:20;;;;;;;12.40;7.03;;;1.90;99.90;;;;;;4917591;29;20051;-88
2022/03/31 10:12:58;;;;;;;11.13;7.10;;;1.50;99.90;;;;;;4919235;29;20039;-88
2022/03/31 10:15:35;;;;;;;10.55;7.75;;;2.10;99.90;;;;;;4918838;29;20047;-90
2022/03/31 10:18:01;;;;;;;9.27;7.00;;;1.40;99.90;;;;;;4938448;28;20077;-92
2022/03/31 10:20:27;;;;;;;10.75;7.25;;;1.30;99.90;;;;;;4922975;29;20047;-92
2022/03/31 10:26:22;;;;;;;8.73;6.20;;;1.30;99.90;;;;;;4938854;29;20055;-94
2022/03/31 10:28:59;;;;;;;9.57;6.25;;;1.30;99.90;;;;;;4937353;29;20142;-93
2022/03/31 10:31:42;;;;;;;7.57;5.28;;;1.30;99.90;;;;;;4923179;29;20047;-92
2022/03/31 10:34:09;;;;;;;7.43;5.53;;;1.30;99.90;;;;;;4921850;29;20566;-91
2022/03/31 10:36:44;;;;;;;7.82;5.20;;;1.30;99.90;;;;;;4922397;29;20289;-90
2022/03/31 10:39:21;;;;;;;7.82;5.43;;;1.30;99.90;;;;;;4922111;29;20107;-91
2022/03/31 10:41:48;;;;;;;7.07;5.55;;;1.20;99.90;;;;;;4922692;29;20045;-89
2022/03/31 10:44:14;;;;;;;6.50;4.93;;;1.20;99.90;;;;;;4922358;29;20043;-90
2022/03/31 10:46:42;;;;;;;9.25;6.00;;;1.20;99.90;;;;;;4922777;29;20106;-89
2022/03/31 10:49:12;;;;;;;7.13;5.38;;;1.20;99.90;;;;;;4921200;29;20094;-88
2022/03/31 10:51:40;;;;;;;8.70;5.50;;;1.30;99.90;;;;;;4923561;29;20044;-90
2022/03/31 10:54:09;;;;;;;7.45;5.60;;;1.60;99.90;;;;;;4922526;29;20043;-90
2022/03/31 10:56:35;;;;;;;9.82;5.82;;;1.80;99.90;;;;;;4922689;29;20106;-93
2022/03/31 10:59:03;;;;;;;6.78;5.43;;;1.70;99.90;;;;;;4921204;29;20046;-92
2022/03/31 11:01:53;;;;;;;9.40;5.57;;;1.30;99.90;;;;;;4921776;29;20503;-92
2022/03/31 11:04:19;;;;;;;7.55;5.72;;;1.30;99.90;;;;;;4935962;29;20411;-91
2022/03/31 11:07:01;;;;;;;7.80;5.63;;;1.90;99.90;;;;;;4921677;29;20102;-90
2022/03/31 11:09:27;;;;;;;7.30;5.65;;;1.30;99.90;;;;;;4939182;28;20130;-87
2022/03/31 11:12:06;;;;;;;6.88;5.18;;;1.40;99.90;;;;;;4939111;28;20046;-87
2022/03/31 11:14:32;;;;;;;7.15;5.18;;;1.40;99.90;;;;;;4938753;28;20268;-85
2022/03/31 11:16:57;;;;;;;7.97;5.43;;;2.60;99.90;;;;;;4938822;28;20066;-88
2022/03/31 11:19:23;;;;;;;7.95;5.63;;;1.80;99.90;;;;;;4938899;28;20047;-87
2022/03/31 11:21:49;;;;;;;6.93;5.38;;;2.60;99.90;;;;;;4938680;28;20142;-86
2022/03/31 11:24:40;;;;;;;6.40;5.03;;;1.50;99.90;;;;;;4936555;28;20094;-86
2022/03/31 11:27:06;;;;;;;7.53;4.93;;;1.50;99.90;;;;;;4938790;28;20054;-85
2022/03/31 11:29:44;;;;;;;7.57;5.13;;;2.50;99.90;;;;;;4938081;28;20039;-86
2022/03/31 11:32:09;;;;;;;7.32;5.28;;;1.70;99.90;;;;;;4937770;28;20035;-86
2022/03/31 11:34:36;;;;;;;6.35;4.90;;;1.40;99.90;;;;;;4938811;28;20058;-85
2022/03/31 11:37:01;;;;;;;8.52;5.32;;;1.40;99.90;;;;;;4939166;28;20510;-86
2022/03/31 11:39:46;;;;;;;8.50;5.53;;;1.90;99.90;;;;;;4934501;29;20465;-86
2022/03/31 11:42:12;;;;;;;7.57;5.55;;;1.40;99.90;;;;;;4919456;29;20070;-86
2022/03/31 11:44:50;;;;;;;8.75;6.32;;;1.40;99.90;;;;;;4919752;29;20086;-87
2022/03/31 11:47:20;;;;;;;7.10;5.82;;;1.40;99.90;;;;;;4919601;29;20078;-87
2022/03/31 11:50:10;;;;;;;9.10;5.85;;;1.40;99.90;;;;;;4920474;29;20106;-87
2022/03/31 11:52:36;;;;;;;8.18;6.45;;;1.30;99.90;;;;;;4919429;29;20115;-89
2022/03/31 11:55:03;;;;;;;8.73;6.32;;;1.40;99.90;;;;;;4920968;29;20115;-88
2022/03/31 11:57:28;;;;;;;8.60;5.43;;;1.80;99.90;;;;;;4920783;29;20051;-89
2022/03/31 12:00:09;;;;;;;10.10;6.53;;;1.10;99.90;;;;;;4919508;29;20079;-88
2022/03/31 12:02:35;;;;;;;9.55;6.28;;;1.30;99.90;;;;;;4921014;29;20051;-88
2022/03/31 12:05:14;;;;;;;8.55;6.32;;;2.10;99.90;;;;;;4920000;29;20060;-88
2022/03/31 12:07:40;;;;;;;8.90;6.38;;;1.20;99.90;;;;;;4919960;29;20051;-89
2022/03/31 12:10:06;;;;;;;9.40;6.53;;;1.60;99.90;;;;;;4919595;29;20050;-86
2022/03/31 12:12:48;;;;;;;9.10;6.38;;;1.10;99.90;;;;;;4920068;29;20134;-86
2022/03/31 12:15:20;;;;;;;8.55;6.45;;;1.10;99.90;;;;;;4918007;29;20546;-87
2022/03/31 12:18:07;;;;;;;9.32;7.05;;;2.30;99.90;;;;;;4919560;29;20395;-86
2022/03/31 12:20:36;;;;;;;9.55;7.10;;;1.10;99.90;;;;;;4920441;29;20134;-87
2022/03/31 12:23:19;;;;;;;8.63;6.63;;;1.10;99.90;;;;;;4920958;29;20039;-87
2022/03/31 12:25:45;;;;;;;10.90;8.25;;;1.10;99.90;;;;;;4920622;29;20059;-87
2022/03/31 12:28:10;;;;;;;9.95;7.60;;;1.40;99.90;;;;;;4920183;29;20134;-90
2022/03/31 12:30:56;;;;;;;10.93;8.52;;;1.80;99.90;;;;;;4921160;29;20420;-90
2022/03/31 12:33:25;;;;;;;10.57;8.52;;;1.10;99.90;;;;;;4919444;29;20039;-90
2022/03/31 12:35:52;;;;;;;10.70;8.77;;;1.10;99.90;;;;;;4918909;29;20134;-90
2022/03/31 12:38:46;;;;;;;10.95;9.25;;;1.10;99.90;;;;;;4919639;29;20043;-89
2022/03/31 12:41:25;;;;;;;13.00;9.82;;;1.10;99.90;;;;;;4919848;29;20113;-89
2022/03/31 12:44:02;;;;;;;13.02;10.38;;;1.10;99.90;;;;;;4919419;29;20039;-90
2022/03/31 12:46:45;;;;;;;10.75;8.98;;;1.30;99.90;;;;;;4935813;29;20396;-88
2022/03/31 12:49:14;;;;;;;12.07;10.18;;;1.90;99.90;;;;;;4918461;29;20134;-89
2022/03/31 12:51:52;;;;;;;12.13;10.23;;;1.60;99.90;;;;;;4920298;29;20051;-89
2022/03/31 12:54:22;;;;;;;12.90;10.68;;;1.00;99.90;;;;;;4919500;29;20066;-89
2022/03/31 12:56:49;;;;;;;15.02;11.93;;;1.10;99.90;;;;;;4935474;29;20047;-88
2022/03/31 12:59:27;;;;;;;16.05;12.27;;;1.10;99.90;;;;;;4918578;29;20063;-88
2022/03/31 13:02:18;;;;;;;18.25;12.75;;;1.10;99.90;;;;;;4919134;29;20050;-88
2022/03/31 13:04:45;;;;;;;16.30;12.85;;;1.10;99.90;;;;;;4919130;29;20054;-89
2022/03/31 13:07:14;;;;;;;14.80;11.68;;;1.40;99.90;;;;;;4920367;28;20047;-89
2022/03/31 13:09:40;;;;;;;17.17;13.50;;;1.90;99.90;;;;;;4938796;28;20054;-88
2022/03/31 13:12:28;;;;;;;19.15;13.48;;;1.00;99.90;;;;;;4954601;28;20038;-86
2022/03/31 13:14:55;;;;;;;17.80;12.75;;;1.20;99.90;;;;;;4937568;28;20077;-85